地図

経路データ

SID SEASON NUMBER BASIN SUBBASIN NAME ISO_TIME NATURE LAT LON WMO_WIND WMO_PRES WMO_AGENCY TRACK_TYPE DIST2LAND LANDFALL IFLAG USA_AGENCY USA_ATCF_ID USA_LAT USA_LON USA_RECORD USA_STATUS USA_WIND USA_PRES USA_SSHS USA_R34_NE USA_R34_SE USA_R34_SW USA_R34_NW USA_R50_NE USA_R50_SE USA_R50_SW USA_R50_NW USA_R64_NE USA_R64_SE USA_R64_SW USA_R64_NW USA_POCI USA_ROCI USA_RMW USA_EYE TOKYO_LAT TOKYO_LON TOKYO_GRADE TOKYO_WIND TOKYO_PRES TOKYO_R50_DIR TOKYO_R50_LONG TOKYO_R50_SHORT TOKYO_R30_DIR TOKYO_R30_LONG TOKYO_R30_SHORT TOKYO_LAND CMA_LAT CMA_LON CMA_CAT CMA_WIND CMA_PRES HKO_LAT HKO_LON HKO_CAT HKO_WIND HKO_PRES NEWDELHI_LAT NEWDELHI_LON NEWDELHI_GRADE NEWDELHI_WIND NEWDELHI_PRES NEWDELHI_CI NEWDELHI_DP NEWDELHI_POCI REUNION_LAT REUNION_LON REUNION_TYPE REUNION_WIND REUNION_PRES REUNION_TNUM REUNION_CI REUNION_RMW REUNION_R34_NE REUNION_R34_SE REUNION_R34_SW REUNION_R34_NW REUNION_R50_NE REUNION_R50_SE REUNION_R50_SW REUNION_R50_NW REUNION_R64_NE REUNION_R64_SE REUNION_R64_SW REUNION_R64_NW BOM_LAT BOM_LON BOM_TYPE BOM_WIND BOM_PRES BOM_TNUM BOM_CI BOM_RMW BOM_R34_NE BOM_R34_SE BOM_R34_SW BOM_R34_NW BOM_R50_NE BOM_R50_SE BOM_R50_SW BOM_R50_NW BOM_R64_NE BOM_R64_SE BOM_R64_SW BOM_R64_NW BOM_ROCI BOM_POCI BOM_EYE BOM_POS_METHOD BOM_PRES_METHOD NADI_LAT NADI_LON NADI_CAT NADI_WIND NADI_PRES WELLINGTON_LAT WELLINGTON_LON WELLINGTON_WIND WELLINGTON_PRES DS824_LAT DS824_LON DS824_STAGE DS824_WIND DS824_PRES TD9636_LAT TD9636_LON TD9636_STAGE TD9636_WIND TD9636_PRES TD9635_LAT TD9635_LON TD9635_WIND TD9635_PRES TD9635_ROCI NEUMANN_LAT NEUMANN_LON NEUMANN_CLASS NEUMANN_WIND NEUMANN_PRES MLC_LAT MLC_LON MLC_CLASS MLC_WIND MLC_PRES USA_GUST BOM_GUST BOM_GUST_PER REUNION_GUST REUNION_GUST_PER USA_SEAHGT USA_SEARAD_NE USA_SEARAD_SE USA_SEARAD_SW USA_SEARAD_NW STORM_SPEED STORM_DIR
2007178N18089 2007 29 NI BB NOT_NAMED 2007-06-27 00:00:00 TS 18.1000 89.3000 main 367 360 O_____________ jtwc_io IO042007 18.1000 89.3000 TD 25 1004 -1 1008 150 45 7 227
2007178N18089 2007 29 NI BB NOT_NAMED 2007-06-27 03:00:00 TS 17.8450 89.0149 main 367 360 P_____________ IO042007 17.8450 89.0149 TD 25 1003 -1 1007 150 45 8 229
2007178N18089 2007 29 NI BB NOT_NAMED 2007-06-27 06:00:00 TS 17.6000 88.7000 main 361 354 O_____________ jtwc_io IO042007 17.6000 88.7000 TD 25 1002 -1 1006 150 45 8 234
2007178N18089 2007 29 NI BB NOT_NAMED 2007-06-27 09:00:00 TS 17.3775 88.3425 main 353 351 P_____________ IO042007 17.3775 88.3425 TD 25 1002 -1 1006 160 45 8 239
2007178N18089 2007 29 NI BB NOT_NAMED 2007-06-27 12:00:00 TS 17.2000 88.0000 main 355 350 O_____________ jtwc_io IO042007 17.2000 88.0000 TD 25 1002 -1 1006 170 45 7 241
2007178N18089 2007 29 NI BB NOT_NAMED 2007-06-27 15:00:00 TS 17.0624 87.7425 main 352 352 P_____________ IO042007 17.0624 87.7425 TD 25 1001 -1 1004 170 45 5 247
2007178N18089 2007 29 NI BB NOT_NAMED 2007-06-27 18:00:00 TS 17.0000 87.5000 main 355 340 O_____________ jtwc_io IO042007 17.0000 87.5000 TD 25 1000 -1 1002 170 45 5 263
2007178N18089 2007 29 NI BB NOT_NAMED 2007-06-27 21:00:00 TS 16.9976 87.1850 main 340 308 P_____________ IO042007 16.9976 87.1850 TD 27 999 -1 1002 170 45 6 280
2007178N18089 2007 29 NI BB NOT_NAMED 2007-06-28 00:00:00 TS 17.1000 86.9000 main 308 278 O_____________ jtwc_io IO042007 17.1000 86.9000 TD 30 999 -1 1002 170 45 5 305
2007178N18089 2007 29 NI BB NOT_NAMED 2007-06-28 03:00:00 TS 17.3049 86.7200 main 278 250 P_____________ IO042007 17.3049 86.7200 TD 30 997 -1 999 202 42 6 330
2007178N18089 2007 29 NI BB NOT_NAMED 2007-06-28 06:00:00 TS 17.6000 86.6000 main 250 222 O_____________ jtwc_io IO042007 17.6000 86.6000 TD 30 995 -1 996 235 40 7 341
2007178N18089 2007 29 NI BB NOT_NAMED 2007-06-28 09:00:00 TS 17.9350 86.4924 main 222 179 P_____________ IO042007 17.9350 86.4924 TD 32 991 -1 996 235 40 7 345
2007178N18089 2007 29 NI BB NOT_NAMED 2007-06-28 12:00:00 TS 18.3000 86.4000 main 179 144 O_____________ jtwc_io IO042007 18.3000 86.4000 TS 35 988 0 996 235 40 7 348
2007178N18089 2007 29 NI BB NOT_NAMED 2007-06-28 15:00:00 TS 18.6499 86.3298 main 144 98 P_____________ IO042007 18.6499 86.3298 TS 40 988 0 996 235 40 7 345
2007178N18089 2007 29 NI BB NOT_NAMED 2007-06-28 18:00:00 TS 19.0000 86.2000 main 98 59 O_____________ jtwc_io IO042007 19.0000 86.2000 TS 45 989 0 65 75 40 40 996 235 40 8 333
2007178N18089 2007 29 NI BB NOT_NAMED 2007-06-28 21:00:00 TS 19.3499 85.9524 main 59 10 P_____________ IO042007 19.3499 85.9524 TS 45 989 0 87 142 115 100 996 235 42 9 321
2007178N18089 2007 29 NI BB NOT_NAMED 2007-06-29 00:00:00 TS 19.7000 85.6000 main 10 0 O_____________ jtwc_io IO042007 19.7000 85.6000 TS 45 989 0 110 210 190 160 996 235 45 10 314
2007178N18089 2007 29 NI BB NOT_NAMED 2007-06-29 03:00:00 TS 20.0425 85.1798 main 0 0 P_____________ IO042007 20.0425 85.1798 TS 42 991 0 110 210 190 160 996 230 42 11 310
2007178N18089 2007 29 NI BB NOT_NAMED 2007-06-29 06:00:00 TS 20.4000 84.7000 main 0 0 O_____________ jtwc_io IO042007 20.4000 84.7000 TS 40 993 0 110 210 190 160 996 225 40 12 310
2007178N18089 2007 29 NI BB NOT_NAMED 2007-06-29 09:00:00 TS 20.8073 84.2224 main 0 0 P_____________ IO042007 20.8073 84.2224 TS 37 994 0 110 210 190 160 12 311
2007178N18089 2007 29 NI BB NOT_NAMED 2007-06-29 12:00:00 TS 21.2000 83.7000 main 0 0 O_____________ jtwc_io IO042007 21.2000 83.7000 TS 35 996 0 110 210 190 160 13 304
2007178N18089 2007 29 NI BB NOT_NAMED 2007-06-29 15:00:00 TS 21.5151 83.0998 main 0 0 P_____________ IO042007 21.5151 83.0998 TS 32 998 -1 13 298
2007178N18089 2007 29 NI BB NOT_NAMED 2007-06-29 18:00:00 TS 21.8000 82.5000 main 0 0 O_____________ jtwc_io IO042007 21.8000 82.5000 TD 30 1000 -1 1001 225 40 12 300
2007178N18089 2007 29 NI BB NOT_NAMED 2007-06-29 21:00:00 TS 22.1071 81.9922 main 0 0 P_____________ IO042007 22.1071 81.9922 TD 25 1003 -1 11 303
2007178N18089 2007 29 NI BB NOT_NAMED 2007-06-30 00:00:00 NR 22.4000 81.5000 main 0 0 O_____________ jtwc_io IO042007 22.4000 81.5000 DB 20 1007 -3 11 300
2007178N18089 2007 29 NI BB NOT_NAMED 2007-06-30 03:00:00 NR 22.6605 80.9654 main 0 0 P_____________ IO042007 22.6605 80.9654 DB 20 1007 -3 11 296
2007178N18089 2007 29 NI BB NOT_NAMED 2007-06-30 06:00:00 NR 22.9000 80.4000 main 0 O_____________ jtwc_io IO042007 22.9000 80.4000 DB 20 1007 -3 11 295

IBTrACS Databaseについて

本データベースは、米国NOAAが公開する1842年以降の世界の熱帯低気圧のベストトラックデータアーカイブInternational Best Track Archive for Climate Stewardship (IBTrACS)を、ウェブで閲覧しやすい形式に変換したものです。

最終更新日:2021-10-21